Sweeney Granite Mountains, California Weather observations

Data are for 10 minute period ending at time listed.
 Day   Time   Solar   Ave.   Ave.  Ave.  Vector  Max.   Baro.   Total    
  of    of     Rad.   Air    Rel.  Wind   Wind   Wind  Press.  Precip.   
Year   Day            Temp.  Hum.  Speed  Dir.   Gust                    
2015   (PST)  Kw/m2    F      %     mph   deg.    mph    mb.     in.     
-------------------------------------------------------------------------
 183    9:10   100.00  99999.0   99999  99999.0   99999   99999.0   99999.0   99999.00 
 183    9:20   100.00  99999.0   99999  99999.0   99999   99999.0   99999.0   99999.00 
 183    9:30   100.00  99999.0   99999  99999.0   99999   99999.0   99999.0   99999.00 
 183    9:40   100.00  99999.0   99999  99999.0   99999   99999.0   99999.0   99999.00 
 183    9:50   100.00  99999.0   99999  99999.0   99999   99999.0   99999.0   99999.00 
 183   10:00   100.00  99999.0   99999  99999.0   99999   99999.0   99999.0   99999.00 
 183   10:10   100.00  99999.0   99999  99999.0   99999   99999.0   99999.0   99999.00 
 183   10:20   100.00  99999.0   99999  99999.0   99999   99999.0   99999.0   99999.00 
 183   10:30   100.00  99999.0   99999  99999.0   99999   99999.0   99999.0   99999.00 
 183   10:40   100.00  99999.0   99999  99999.0   99999   99999.0   99999.0   99999.00 
 183   10:50   100.00  99999.0   99999  99999.0   99999   99999.0   99999.0   99999.00 
 183   11:00   100.00  99999.0   99999  99999.0   99999   99999.0   99999.0   99999.00 
 183   11:10   100.00  99999.0   99999  99999.0   99999   99999.0   99999.0   99999.00 
 183   11:20   100.00  99999.0   99999  99999.0   99999   99999.0   99999.0   99999.00 
 183   11:30   100.00  99999.0   99999  99999.0   99999   99999.0   99999.0   99999.00 
 183   11:40   100.00  99999.0   99999  99999.0   99999   99999.0   99999.0   99999.00 
 183   11:50   100.00  99999.0   99999  99999.0   99999   99999.0   99999.0   99999.00 
 183   12:00   100.00  99999.0   99999  99999.0   99999   99999.0   99999.0   99999.00 
 183   12:10   100.00  99999.0   99999  99999.0   99999   99999.0   99999.0   99999.00 
 183   12:20   100.00  99999.0   99999  99999.0   99999   99999.0   99999.0   99999.00 
 183   12:30   100.00  99999.0   99999  99999.0   99999   99999.0   99999.0   99999.00 
 183   12:40   100.00  99999.0   99999  99999.0   99999   99999.0   99999.0   99999.00 
 183   12:50   100.00  99999.0   99999  99999.0   99999   99999.0   99999.0   99999.00 
 183   13:00   100.00  99999.0   99999  99999.0   99999   99999.0   99999.0   99999.00 
 183   13:10   100.00  99999.0   99999  99999.0   99999   99999.0   99999.0   99999.00 
 183   13:20   100.00  99999.0   99999  99999.0   99999   99999.0   99999.0   99999.00 
 183   13:30   100.00  99999.0   99999  99999.0   99999   99999.0   99999.0   99999.00 
 183   13:40   100.00  99999.0   99999  99999.0   99999   99999.0   99999.0   99999.00 
 183   13:50   100.00  99999.0   99999  99999.0   99999   99999.0   99999.0   99999.00 
 183   14:00   100.00  99999.0   99999  99999.0   99999   99999.0   99999.0   99999.00 
 183   14:10   100.00  99999.0   99999  99999.0   99999   99999.0   99999.0   99999.00 
 183   14:20   0.84   89.9    26    4.6   219    10.2   870.5    0.00 
 183   14:30   0.81   88.6    27    6.0   197    12.8   870.3    0.00 
 183   14:40   0.78   89.0    27    7.2   215    13.4   870.2    0.00 
 183   14:50   0.75   88.0    28    6.9   200    13.2   870.1    0.00 
 183   15:00   0.73   89.1    27    3.2   322     9.1   869.9    0.00 
 183   15:10   0.70   90.1    26    4.5   206    10.5   869.8    0.00 
 183   15:20   0.67   88.6    27    6.4   216    13.4   869.7    0.00 
 183   15:30   0.64   89.8    26    4.1   184    14.5   869.6    0.00 
 183   15:40   0.61   90.7    25    3.4   219     9.8   869.4    0.00 
 183   15:50   0.58   89.9    25    5.1   199    11.5   869.3    0.00 
 183   16:00   0.54   89.9    25    3.2   106     9.3   869.2    0.00 
 183   16:10   0.51   89.2    26    5.0   191    10.2   869.1    0.00 
 183   16:20   0.48   89.7    25    5.6   198    13.0   869.0    0.00 
 183   16:30   0.45   89.3    25    5.5   217    11.2   869.0    0.00 
 183   16:40   0.41   88.7    25    7.4   214    13.1   869.0    0.00 
 183   16:50   0.38   89.7    24    4.2   237     9.9   868.8    0.00 
 183   17:00   0.34   90.3    23    3.8   215     8.4   868.8    0.00 
 183   17:10   0.31   89.0    24    8.1   220    17.5   868.7    0.00 
 183   17:20   0.27   88.6    24    6.2   271    11.7   868.7    0.00 
 183   17:30   0.24   89.7    23    3.6   254     8.0   868.7    0.00 
 183   17:40   0.20   89.8    23    3.6   220     8.9   868.7    0.00 
 183   17:50   0.17   88.8    24    5.6   237    11.4   868.7    0.00 
 183   18:00   0.04   86.8    26    7.4   290    11.8   868.7    0.00 
 183   18:10   0.01   85.4    28    4.3   274     8.2   868.8    0.00 
 183   18:20   0.01   85.4    27    2.8   241     5.3   868.9    0.00 
 183   18:30   0.01   85.0    28    4.5   287     7.0   869.0    0.00 
 183   18:40   0.01   84.8    29    3.5   278     6.9   869.1    0.00 
 183   18:50   0.00   84.8    28    2.7   276     5.3   869.3    0.00 
 183   19:00   0.00   84.9    28    3.3   256     8.4   869.4    0.00 
 183   19:10   0.00   84.8    29    1.7   265     4.8   869.5    0.00 
 183   19:20   0.00   83.8    30    4.2   283     6.6   869.6    0.00 
 183   19:30   0.00   83.8    30    3.9   286     7.7   869.6    0.00 
 183   19:40   0.00   83.3    31    3.9   276     7.2   869.7    0.00 
 183   19:50   0.00   82.6    32    4.7   280     7.4   869.8    0.00 
 183   20:00   0.00   82.3    32    4.5   276     6.6   869.9    0.00 
 183   20:10   0.00   81.7    33    5.0   277     6.9   870.0    0.00 
 183   20:20   0.00   81.4    34    4.7   284     7.7   870.2    0.00 
 183   20:30   0.00   81.6    33    4.8   279     6.6   870.3    0.00 
 183   20:40   0.00   81.0    35    4.8   281     6.0   870.3    0.00 
 183   20:50   0.00   80.9    35    4.8   277     5.8   870.3    0.00 
 183   21:00   0.00   80.7    36    4.6   283     5.6   870.4    0.00 
 183   21:10   100.00  99999.0   99999  99999.0   99999   99999.0   99999.0   99999.00 
 183   21:20   100.00  99999.0   99999  99999.0   99999   99999.0   99999.0   99999.00 
 183   21:30   100.00  99999.0   99999  99999.0   99999   99999.0   99999.0   99999.00 
 183   21:40   100.00  99999.0   99999  99999.0   99999   99999.0   99999.0   99999.00 
 183   21:50   100.00  99999.0   99999  99999.0   99999   99999.0   99999.0   99999.00 
 183   22:00   100.00  99999.0   99999  99999.0   99999   99999.0   99999.0   99999.00 
 183   22:10   100.00  99999.0   99999  99999.0   99999   99999.0   99999.0   99999.00 
 183   22:20   100.00  99999.0   99999  99999.0   99999   99999.0   99999.0   99999.00 
 183   22:30   100.00  99999.0   99999  99999.0   99999   99999.0   99999.0   99999.00 
 183   22:40   100.00  99999.0   99999  99999.0   99999   99999.0   99999.0   99999.00 
 183   22:50   100.00  99999.0   99999  99999.0   99999   99999.0   99999.0   99999.00 
 183   23:00   100.00  99999.0   99999  99999.0   99999   99999.0   99999.0   99999.00 
 183   23:10   100.00  99999.0   99999  99999.0   99999   99999.0   99999.0   99999.00 
 183   23:20   100.00  99999.0   99999  99999.0   99999   99999.0   99999.0   99999.00 
 183   23:30   100.00  99999.0   99999  99999.0   99999   99999.0   99999.0   99999.00 
 183   23:40   100.00  99999.0   99999  99999.0   99999   99999.0   99999.0   99999.00 
 183   23:50   100.00  99999.0   99999  99999.0   99999   99999.0   99999.0   99999.00 
 184    0:00   100.00  99999.0   99999  99999.0   99999   99999.0   99999.0   99999.00 
 184    0:10   100.00  99999.0   99999  99999.0   99999   99999.0   99999.0   99999.00 
 184    0:20   100.00  99999.0   99999  99999.0   99999   99999.0   99999.0   99999.00 
 184    0:30   100.00  99999.0   99999  99999.0   99999   99999.0   99999.0   99999.00 
 184    0:40   100.00  99999.0   99999  99999.0   99999   99999.0   99999.0   99999.00 
 184    0:50   100.00  99999.0   99999  99999.0   99999   99999.0   99999.0   99999.00 
 184    1:00   100.00  99999.0   99999  99999.0   99999   99999.0   99999.0   99999.00 
 184    1:10   100.00  99999.0   99999  99999.0   99999   99999.0   99999.0   99999.00 
 184    1:20   100.00  99999.0   99999  99999.0   99999   99999.0   99999.0   99999.00 
 184    1:30   100.00  99999.0   99999  99999.0   99999   99999.0   99999.0   99999.00 
 184    1:40   100.00  99999.0   99999  99999.0   99999   99999.0   99999.0   99999.00 
 184    1:50   100.00  99999.0   99999  99999.0   99999   99999.0   99999.0   99999.00 
 184    2:00   100.00  99999.0   99999  99999.0   99999   99999.0   99999.0   99999.00 
 184    2:10   100.00  99999.0   99999  99999.0   99999   99999.0   99999.0   99999.00 
 184    2:20   0.00   77.1    35   17.4   316    23.0   869.9    0.00 
 184    2:30   0.00   77.1    35   17.9   314    24.0   869.8    0.00 
 184    2:40   0.00   77.0    35   16.9   318    23.2   869.8    0.00 
 184    2:50   0.00   77.1    35   17.1   312    22.9   869.7    0.00 
 184    3:00   0.00   77.3    34   16.9   315    25.0   869.7    0.00 
 184    3:10   0.00   77.2    34   17.2   314    24.0   869.8    0.00 
 184    3:20   0.00   77.2    34   16.4   311    23.5   869.8    0.00 
 184    3:30   0.00   77.2    34   17.9   310    23.7   869.7    0.00 
 184    3:40   0.00   77.3    34   16.5   313    23.5   869.7    0.00 
 184    3:50   0.00   77.2    34   17.5   311    22.4   869.7    0.00 
 184    4:00   0.00   77.2    34   18.2   307    25.1   869.7    0.00 
 184    4:10   0.00   77.0    34   18.0   305    24.3   869.8    0.00 
 184    4:20   0.00   76.9    34   17.1   309    23.2   869.9    0.00 
 184    4:30   0.00   77.1    34   17.2   313    24.1   870.0    0.00 
 184    4:40   0.00   77.1    34   18.0   308    23.5   870.0    0.00 
 184    4:50   0.00   77.3    33   18.0   312    25.7   870.1    0.00 
 184    5:00   0.00   77.2    33   18.4   313    26.2   870.1    0.00 
 184    5:10   0.01   76.8    33   17.7   310    26.8   870.2    0.00 
 184    5:20   0.01   76.9    33   18.1   312    23.8   870.2    0.00 
 184    5:30   0.01   77.1    33   18.2   313    25.3   870.3    0.00 
 184    5:40   0.03   77.3    33   17.1   311    25.8   870.4    0.00 
 184    5:50   0.04   77.6    32   16.4   311    24.2   870.4    0.00 
 184    6:00   0.05   77.8    32   16.6   310    23.2   870.5    0.00 
 184    6:10   0.07   78.2    32   17.2   313    24.5   870.5    0.00 
 184    6:20   0.10   78.8    31   16.6   317    26.1   870.6    0.00 
 184    6:30   0.15   79.4    30   14.8   323    20.2   870.6    0.00 
 184    6:40   0.19   80.1    30   14.4   319    21.3   870.6    0.00 
 184    6:50   0.10   79.5    30   14.4   318    20.7   870.7    0.00 
 184    7:00   0.20   79.9    30   14.2   314    20.3   870.8    0.00 
 184    7:10   0.24   80.5    30   13.7   315    19.3   870.9    0.00 
 184    7:20   0.29   80.8    29   13.7   316    20.1   870.9    0.00 
 184    7:30   0.49   81.5    28   13.7   320    20.0   871.0    0.00 
 184    7:40   0.58   82.5    28   13.8   311    19.2   871.0    0.00 
 184    7:50   0.58   83.4    27   11.1   323    19.4   871.1    0.00 
 184    8:00   0.61   83.9    27    9.4   319    17.0   871.1    0.00 
 184    8:10   0.65   85.0    26    9.0   314    16.8   871.1    0.00 
 184    8:20   0.68   85.2    26    8.9   310    15.0   871.2    0.00 
 184    8:30   0.71   85.2    26    7.2   325    12.9   871.3    0.00 
 184    8:40   0.74   85.9    25    8.9   305    13.3   871.2    0.00 
 184    8:50   0.76   86.3    25    7.1   329    13.3   871.2    0.00 
 184    9:00   0.81   87.2    24    5.8   328     9.9   871.1    0.00 

Return to Sweeney Granite Mountains graphs page.


Western Regional Climate Center,wrcc@dri.edu